sensor_id;sensor_type;location;lat;lon;timestamp;P1;durP1;ratioP1;P2;durP2;ratioP2
77451;SDS011;66537;52.370;4.832;2023-04-15T00:00:52;13.47;;;4.80;;
77451;SDS011;66537;52.370;4.832;2023-04-15T00:03:17;15.60;;;3.83;;
77451;SDS011;66537;52.370;4.832;2023-04-15T00:05:43;11.73;;;4.85;;
77451;SDS011;66537;52.370;4.832;2023-04-15T00:08:08;10.48;;;4.80;;
77451;SDS011;66537;52.370;4.832;2023-04-15T00:10:33;12.90;;;4.83;;
77451;SDS011;66537;52.370;4.832;2023-04-15T00:12:59;12.00;;;4.93;;
77451;SDS011;66537;52.370;4.832;2023-04-15T00:15:25;9.77;;;4.38;;
77451;SDS011;66537;52.370;4.832;2023-04-15T00:17:51;13.10;;;5.10;;
77451;SDS011;66537;52.370;4.832;2023-04-15T00:20:17;11.07;;;4.60;;
77451;SDS011;66537;52.370;4.832;2023-04-15T00:22:42;13.80;;;5.25;;
77451;SDS011;66537;52.370;4.832;2023-04-15T00:25:07;10.50;;;5.03;;
77451;SDS011;66537;52.370;4.832;2023-04-15T00:27:33;12.05;;;4.53;;
77451;SDS011;66537;52.370;4.832;2023-04-15T00:29:58;10.05;;;4.80;;
77451;SDS011;66537;52.370;4.832;2023-04-15T00:32:24;15.40;;;4.40;;
77451;SDS011;66537;52.370;4.832;2023-04-15T00:34:49;10.90;;;4.60;;
77451;SDS011;66537;52.370;4.832;2023-04-15T00:37:15;12.07;;;4.97;;
77451;SDS011;66537;52.370;4.832;2023-04-15T00:39:40;11.50;;;4.53;;
77451;SDS011;66537;52.370;4.832;2023-04-15T00:42:06;11.50;;;4.97;;
77451;SDS011;66537;52.370;4.832;2023-04-15T00:44:31;12.85;;;4.57;;
77451;SDS011;66537;52.370;4.832;2023-04-15T00:46:57;16.17;;;5.63;;
77451;SDS011;66537;52.370;4.832;2023-04-15T00:49:24;10.63;;;4.80;;
77451;SDS011;66537;52.370;4.832;2023-04-15T00:51:51;13.02;;;4.97;;
77451;SDS011;66537;52.370;4.832;2023-04-15T00:54:16;9.50;;;4.13;;
77451;SDS011;66537;52.370;4.832;2023-04-15T00:56:42;14.82;;;5.38;;
77451;SDS011;66537;52.370;4.832;2023-04-15T00:59:07;13.13;;;4.82;;
77451;SDS011;66537;52.370;4.832;2023-04-15T01:01:34;11.20;;;4.65;;
77451;SDS011;66537;52.370;4.832;2023-04-15T01:04:00;14.90;;;4.90;;
77451;SDS011;66537;52.370;4.832;2023-04-15T01:06:26;13.07;;;5.07;;
77451;SDS011;66537;52.370;4.832;2023-04-15T01:08:52;12.60;;;5.57;;
77451;SDS011;66537;52.370;4.832;2023-04-15T01:11:18;11.90;;;4.70;;
77451;SDS011;66537;52.370;4.832;2023-04-15T01:13:45;13.45;;;5.07;;
77451;SDS011;66537;52.370;4.832;2023-04-15T01:16:10;17.13;;;4.70;;
77451;SDS011;66537;52.370;4.832;2023-04-15T01:18:37;14.50;;;4.38;;
77451;SDS011;66537;52.370;4.832;2023-04-15T01:21:03;11.68;;;4.15;;
77451;SDS011;66537;52.370;4.832;2023-04-15T01:23:29;10.70;;;3.65;;
77451;SDS011;66537;52.370;4.832;2023-04-15T01:25:55;13.32;;;4.45;;
77451;SDS011;66537;52.370;4.832;2023-04-15T01:28:22;10.85;;;4.65;;
77451;SDS011;66537;52.370;4.832;2023-04-15T01:30:48;12.23;;;3.90;;
77451;SDS011;66537;52.370;4.832;2023-04-15T01:33:13;8.63;;;3.78;;
77451;SDS011;66537;52.370;4.832;2023-04-15T01:35:40;13.38;;;4.07;;
77451;SDS011;66537;52.370;4.832;2023-04-15T01:38:08;9.25;;;3.97;;
77451;SDS011;66537;52.370;4.832;2023-04-15T01:40:34;11.85;;;4.45;;
77451;SDS011;66537;52.370;4.832;2023-04-15T01:43:00;10.13;;;4.13;;
77451;SDS011;66537;52.370;4.832;2023-04-15T01:45:26;12.20;;;4.50;;
77451;SDS011;66537;52.370;4.832;2023-04-15T01:47:52;10.88;;;4.55;;
77451;SDS011;66537;52.370;4.832;2023-04-15T01:50:18;11.02;;;5.95;;
77451;SDS011;66537;52.370;4.832;2023-04-15T01:52:44;11.57;;;5.03;;
77451;SDS011;66537;52.370;4.832;2023-04-15T01:55:11;15.07;;;5.47;;
77451;SDS011;66537;52.370;4.832;2023-04-15T01:57:36;11.20;;;5.45;;
77451;SDS011;66537;52.370;4.832;2023-04-15T02:00:02;12.40;;;5.10;;
77451;SDS011;66537;52.370;4.832;2023-04-15T02:02:27;10.73;;;4.30;;
77451;SDS011;66537;52.370;4.832;2023-04-15T02:04:53;12.35;;;5.40;;
77451;SDS011;66537;52.370;4.832;2023-04-15T02:07:18;10.73;;;5.22;;
77451;SDS011;66537;52.370;4.832;2023-04-15T02:09:44;12.45;;;5.10;;
77451;SDS011;66537;52.370;4.832;2023-04-15T02:12:10;15.52;;;5.30;;
77451;SDS011;66537;52.370;4.832;2023-04-15T02:14:35;12.50;;;5.35;;
77451;SDS011;66537;52.370;4.832;2023-04-15T02:17:01;14.88;;;4.93;;
77451;SDS011;66537;52.370;4.832;2023-04-15T02:19:31;13.05;;;5.65;;
77451;SDS011;66537;52.370;4.832;2023-04-15T02:21:59;12.55;;;5.70;;
77451;SDS011;66537;52.370;4.832;2023-04-15T02:24:28;14.68;;;4.82;;
77451;SDS011;66537;52.370;4.832;2023-04-15T02:26:55;11.02;;;4.93;;
77451;SDS011;66537;52.370;4.832;2023-04-15T02:29:20;14.00;;;5.05;;
77451;SDS011;66537;52.370;4.832;2023-04-15T02:31:47;10.82;;;4.95;;
77451;SDS011;66537;52.370;4.832;2023-04-15T02:34:12;12.77;;;5.50;;
77451;SDS011;66537;52.370;4.832;2023-04-15T02:36:38;11.93;;;5.75;;
77451;SDS011;66537;52.370;4.832;2023-04-15T02:39:04;11.10;;;4.45;;
77451;SDS011;66537;52.370;4.832;2023-04-15T02:41:30;10.18;;;4.53;;
77451;SDS011;66537;52.370;4.832;2023-04-15T02:43:55;13.23;;;4.60;;
77451;SDS011;66537;52.370;4.832;2023-04-15T02:46:21;13.82;;;5.53;;
77451;SDS011;66537;52.370;4.832;2023-04-15T02:48:47;13.23;;;4.93;;
77451;SDS011;66537;52.370;4.832;2023-04-15T02:51:13;12.00;;;4.97;;
77451;SDS011;66537;52.370;4.832;2023-04-15T02:53:43;11.63;;;4.55;;
77451;SDS011;66537;52.370;4.832;2023-04-15T02:56:09;11.63;;;4.93;;
77451;SDS011;66537;52.370;4.832;2023-04-15T02:58:35;13.18;;;4.97;;
77451;SDS011;66537;52.370;4.832;2023-04-15T03:01:01;9.05;;;4.32;;
77451;SDS011;66537;52.370;4.832;2023-04-15T03:03:26;13.68;;;5.25;;
77451;SDS011;66537;52.370;4.832;2023-04-15T03:05:54;12.60;;;5.18;;
77451;SDS011;66537;52.370;4.832;2023-04-15T03:08:20;10.77;;;4.95;;
77451;SDS011;66537;52.370;4.832;2023-04-15T03:10:45;11.75;;;4.85;;
77451;SDS011;66537;52.370;4.832;2023-04-15T03:13:11;10.82;;;4.97;;
77451;SDS011;66537;52.370;4.832;2023-04-15T03:15:36;10.90;;;4.53;;
77451;SDS011;66537;52.370;4.832;2023-04-15T03:18:02;13.32;;;5.18;;
77451;SDS011;66537;52.370;4.832;2023-04-15T03:20:27;12.10;;;4.88;;
77451;SDS011;66537;52.370;4.832;2023-04-15T03:22:52;11.73;;;5.37;;
77451;SDS011;66537;52.370;4.832;2023-04-15T03:25:18;9.10;;;4.00;;
77451;SDS011;66537;52.370;4.832;2023-04-15T03:27:43;13.18;;;5.43;;
77451;SDS011;66537;52.370;4.832;2023-04-15T03:30:09;14.87;;;5.10;;
77451;SDS011;66537;52.370;4.832;2023-04-15T03:32:34;10.50;;;4.75;;
77451;SDS011;66537;52.370;4.832;2023-04-15T03:35:00;13.00;;;5.10;;
77451;SDS011;66537;52.370;4.832;2023-04-15T03:37:25;13.00;;;4.90;;
77451;SDS011;66537;52.370;4.832;2023-04-15T03:39:51;12.65;;;6.15;;
77451;SDS011;66537;52.370;4.832;2023-04-15T03:42:16;10.97;;;4.87;;
77451;SDS011;66537;52.370;4.832;2023-04-15T03:44:42;11.10;;;5.00;;
77451;SDS011;66537;52.370;4.832;2023-04-15T03:47:07;13.03;;;5.40;;
77451;SDS011;66537;52.370;4.832;2023-04-15T03:49:32;12.95;;;5.13;;
77451;SDS011;66537;52.370;4.832;2023-04-15T03:51:58;15.50;;;5.80;;
77451;SDS011;66537;52.370;4.832;2023-04-15T03:54:23;12.50;;;4.88;;
77451;SDS011;66537;52.370;4.832;2023-04-15T03:56:49;17.63;;;5.18;;
77451;SDS011;66537;52.370;4.832;2023-04-15T03:59:14;13.43;;;5.05;;
77451;SDS011;66537;52.370;4.832;2023-04-15T04:01:40;13.73;;;5.65;;
77451;SDS011;66537;52.370;4.832;2023-04-15T04:04:05;12.85;;;5.43;;
77451;SDS011;66537;52.370;4.832;2023-04-15T04:06:31;13.65;;;5.15;;
77451;SDS011;66537;52.370;4.832;2023-04-15T04:08:56;12.68;;;5.28;;
77451;SDS011;66537;52.370;4.832;2023-04-15T04:11:22;15.77;;;5.93;;
77451;SDS011;66537;52.370;4.832;2023-04-15T04:13:47;13.37;;;6.20;;
77451;SDS011;66537;52.370;4.832;2023-04-15T04:16:12;12.40;;;5.20;;
77451;SDS011;66537;52.370;4.832;2023-04-15T04:18:37;12.47;;;5.73;;
77451;SDS011;66537;52.370;4.832;2023-04-15T04:21:03;11.20;;;5.33;;
77451;SDS011;66537;52.370;4.832;2023-04-15T04:23:28;11.45;;;5.20;;
77451;SDS011;66537;52.370;4.832;2023-04-15T04:25:53;15.63;;;6.50;;
77451;SDS011;66537;52.370;4.832;2023-04-15T04:28:19;11.70;;;5.40;;
77451;SDS011;66537;52.370;4.832;2023-04-15T04:30:44;12.07;;;5.97;;
77451;SDS011;66537;52.370;4.832;2023-04-15T04:33:09;14.57;;;5.30;;
77451;SDS011;66537;52.370;4.832;2023-04-15T04:35:35;15.27;;;6.85;;
77451;SDS011;66537;52.370;4.832;2023-04-15T04:38:02;15.00;;;6.30;;
77451;SDS011;66537;52.370;4.832;2023-04-15T04:40:28;14.07;;;6.63;;
77451;SDS011;66537;52.370;4.832;2023-04-15T04:42:53;14.43;;;6.50;;
77451;SDS011;66537;52.370;4.832;2023-04-15T04:45:18;14.30;;;5.78;;
77451;SDS011;66537;52.370;4.832;2023-04-15T04:47:44;13.50;;;6.68;;
77451;SDS011;66537;52.370;4.832;2023-04-15T04:50:11;15.02;;;6.68;;
77451;SDS011;66537;52.370;4.832;2023-04-15T04:52:36;14.50;;;6.55;;
77451;SDS011;66537;52.370;4.832;2023-04-15T04:55:02;15.13;;;6.78;;
77451;SDS011;66537;52.370;4.832;2023-04-15T04:57:28;13.15;;;6.50;;
77451;SDS011;66537;52.370;4.832;2023-04-15T04:59:53;16.25;;;6.90;;
77451;SDS011;66537;52.370;4.832;2023-04-15T05:02:19;14.57;;;6.63;;
77451;SDS011;66537;52.370;4.832;2023-04-15T05:04:44;17.75;;;7.20;;
77451;SDS011;66537;52.370;4.832;2023-04-15T05:07:10;11.75;;;6.65;;
77451;SDS011;66537;52.370;4.832;2023-04-15T05:09:35;15.50;;;6.93;;
77451;SDS011;66537;52.370;4.832;2023-04-15T05:12:01;14.70;;;7.05;;
77451;SDS011;66537;52.370;4.832;2023-04-15T05:14:27;19.08;;;7.93;;
77451;SDS011;66537;52.370;4.832;2023-04-15T05:16:53;16.07;;;8.17;;
77451;SDS011;66537;52.370;4.832;2023-04-15T05:19:18;17.17;;;7.40;;
77451;SDS011;66537;52.370;4.832;2023-04-15T05:21:43;17.40;;;7.20;;
77451;SDS011;66537;52.370;4.832;2023-04-15T05:24:09;15.20;;;7.53;;
77451;SDS011;66537;52.370;4.832;2023-04-15T05:26:34;17.03;;;8.60;;
77451;SDS011;66537;52.370;4.832;2023-04-15T05:29:00;16.23;;;7.95;;
77451;SDS011;66537;52.370;4.832;2023-04-15T05:31:25;18.40;;;7.63;;
77451;SDS011;66537;52.370;4.832;2023-04-15T05:33:50;15.63;;;7.85;;
77451;SDS011;66537;52.370;4.832;2023-04-15T05:36:16;17.83;;;7.90;;
77451;SDS011;66537;52.370;4.832;2023-04-15T05:38:41;15.83;;;7.63;;
77451;SDS011;66537;52.370;4.832;2023-04-15T05:41:06;17.63;;;7.95;;
77451;SDS011;66537;52.370;4.832;2023-04-15T05:43:32;15.57;;;7.68;;
77451;SDS011;66537;52.370;4.832;2023-04-15T05:45:58;16.98;;;8.75;;
77451;SDS011;66537;52.370;4.832;2023-04-15T05:48:23;18.63;;;7.37;;
77451;SDS011;66537;52.370;4.832;2023-04-15T05:50:48;16.77;;;8.17;;
77451;SDS011;66537;52.370;4.832;2023-04-15T05:53:14;17.10;;;7.85;;
77451;SDS011;66537;52.370;4.832;2023-04-15T05:55:39;19.60;;;9.25;;
77451;SDS011;66537;52.370;4.832;2023-04-15T05:58:05;17.60;;;7.38;;
77451;SDS011;66537;52.370;4.832;2023-04-15T06:00:30;16.90;;;7.67;;
77451;SDS011;66537;52.370;4.832;2023-04-15T06:02:56;17.77;;;8.63;;
77451;SDS011;66537;52.370;4.832;2023-04-15T06:05:22;16.35;;;8.10;;
77451;SDS011;66537;52.370;4.832;2023-04-15T06:07:48;17.30;;;8.55;;
77451;SDS011;66537;52.370;4.832;2023-04-15T06:10:14;16.25;;;7.85;;
77451;SDS011;66537;52.370;4.832;2023-04-15T06:12:40;17.33;;;8.27;;
77451;SDS011;66537;52.370;4.832;2023-04-15T06:15:05;18.00;;;8.85;;
77451;SDS011;66537;52.370;4.832;2023-04-15T06:17:31;17.98;;;8.35;;
77451;SDS011;66537;52.370;4.832;2023-04-15T06:19:56;18.75;;;8.82;;
77451;SDS011;66537;52.370;4.832;2023-04-15T06:22:22;16.20;;;7.90;;
77451;SDS011;66537;52.370;4.832;2023-04-15T06:24:48;16.25;;;8.13;;
77451;SDS011;66537;52.370;4.832;2023-04-15T06:27:17;16.20;;;8.05;;
77451;SDS011;66537;52.370;4.832;2023-04-15T06:29:42;16.85;;;7.97;;
77451;SDS011;66537;52.370;4.832;2023-04-15T06:32:08;18.05;;;7.95;;
77451;SDS011;66537;52.370;4.832;2023-04-15T06:34:33;16.67;;;8.70;;
77451;SDS011;66537;52.370;4.832;2023-04-15T06:36:59;19.83;;;9.27;;
77451;SDS011;66537;52.370;4.832;2023-04-15T06:39:25;16.58;;;8.23;;
77451;SDS011;66537;52.370;4.832;2023-04-15T06:41:51;14.05;;;7.35;;
77451;SDS011;66537;52.370;4.832;2023-04-15T06:44:17;16.60;;;7.68;;
77451;SDS011;66537;52.370;4.832;2023-04-15T06:46:42;17.30;;;8.43;;
77451;SDS011;66537;52.370;4.832;2023-04-15T06:49:08;14.50;;;7.68;;
77451;SDS011;66537;52.370;4.832;2023-04-15T06:51:34;15.57;;;7.32;;
77451;SDS011;66537;52.370;4.832;2023-04-15T06:54:00;13.60;;;6.43;;
77451;SDS011;66537;52.370;4.832;2023-04-15T06:56:26;15.82;;;7.50;;
77451;SDS011;66537;52.370;4.832;2023-04-15T06:58:51;13.43;;;6.20;;
77451;SDS011;66537;52.370;4.832;2023-04-15T07:01:17;13.70;;;6.27;;
77451;SDS011;66537;52.370;4.832;2023-04-15T07:03:42;14.63;;;6.45;;
77451;SDS011;66537;52.370;4.832;2023-04-15T07:06:07;13.38;;;6.28;;
77451;SDS011;66537;52.370;4.832;2023-04-15T07:08:33;14.35;;;6.55;;
77451;SDS011;66537;52.370;4.832;2023-04-15T07:10:59;14.63;;;6.57;;
77451;SDS011;66537;52.370;4.832;2023-04-15T07:13:25;12.45;;;5.75;;
77451;SDS011;66537;52.370;4.832;2023-04-15T07:15:51;11.38;;;5.05;;
77451;SDS011;66537;52.370;4.832;2023-04-15T07:18:16;12.02;;;5.28;;
77451;SDS011;66537;52.370;4.832;2023-04-15T07:20:41;10.50;;;5.37;;
77451;SDS011;66537;52.370;4.832;2023-04-15T07:23:07;9.75;;;4.85;;
77451;SDS011;66537;52.370;4.832;2023-04-15T07:25:33;11.23;;;5.35;;
77451;SDS011;66537;52.370;4.832;2023-04-15T07:27:58;9.48;;;4.88;;
77451;SDS011;66537;52.370;4.832;2023-04-15T07:30:24;10.70;;;4.60;;
77451;SDS011;66537;52.370;4.832;2023-04-15T07:32:49;11.80;;;4.78;;
77451;SDS011;66537;52.370;4.832;2023-04-15T07:35:15;9.43;;;4.68;;
77451;SDS011;66537;52.370;4.832;2023-04-15T07:37:40;9.97;;;4.27;;
77451;SDS011;66537;52.370;4.832;2023-04-15T07:40:07;9.38;;;4.47;;
77451;SDS011;66537;52.370;4.832;2023-04-15T07:42:33;8.82;;;3.92;;
77451;SDS011;66537;52.370;4.832;2023-04-15T07:44:59;8.27;;;4.13;;
77451;SDS011;66537;52.370;4.832;2023-04-15T07:47:24;8.10;;;4.10;;
77451;SDS011;66537;52.370;4.832;2023-04-15T07:49:51;6.88;;;3.80;;
77451;SDS011;66537;52.370;4.832;2023-04-15T07:52:16;9.40;;;4.22;;
77451;SDS011;66537;52.370;4.832;2023-04-15T07:54:42;7.20;;;3.50;;
77451;SDS011;66537;52.370;4.832;2023-04-15T07:57:07;8.57;;;3.80;;
77451;SDS011;66537;52.370;4.832;2023-04-15T07:59:32;7.67;;;3.53;;
77451;SDS011;66537;52.370;4.832;2023-04-15T08:01:58;7.53;;;3.53;;
77451;SDS011;66537;52.370;4.832;2023-04-15T08:04:23;8.05;;;3.25;;
77451;SDS011;66537;52.370;4.832;2023-04-15T08:06:49;7.78;;;3.70;;
77451;SDS011;66537;52.370;4.832;2023-04-15T08:09:14;8.95;;;4.15;;
77451;SDS011;66537;52.370;4.832;2023-04-15T08:11:40;7.60;;;3.58;;
77451;SDS011;66537;52.370;4.832;2023-04-15T08:14:06;7.65;;;3.58;;
77451;SDS011;66537;52.370;4.832;2023-04-15T08:16:31;9.90;;;3.50;;
77451;SDS011;66537;52.370;4.832;2023-04-15T08:18:57;7.75;;;3.60;;
77451;SDS011;66537;52.370;4.832;2023-04-15T08:21:23;7.40;;;3.50;;
77451;SDS011;66537;52.370;4.832;2023-04-15T08:23:49;7.78;;;3.65;;
77451;SDS011;66537;52.370;4.832;2023-04-15T08:26:16;9.07;;;4.07;;
77451;SDS011;66537;52.370;4.832;2023-04-15T08:28:45;8.05;;;3.65;;
77451;SDS011;66537;52.370;4.832;2023-04-15T08:31:12;7.38;;;3.58;;
77451;SDS011;66537;52.370;4.832;2023-04-15T08:33:39;10.15;;;4.20;;
77451;SDS011;66537;52.370;4.832;2023-04-15T08:36:04;9.73;;;4.60;;
77451;SDS011;66537;52.370;4.832;2023-04-15T08:38:30;9.85;;;4.18;;
77451;SDS011;66537;52.370;4.832;2023-04-15T08:40:55;9.40;;;4.45;;
77451;SDS011;66537;52.370;4.832;2023-04-15T08:43:23;10.48;;;5.00;;
77451;SDS011;66537;52.370;4.832;2023-04-15T08:48:18;7.85;;;3.58;;
77451;SDS011;66537;52.370;4.832;2023-04-15T08:50:45;8.15;;;3.85;;
77451;SDS011;66537;52.370;4.832;2023-04-15T08:53:11;10.18;;;3.58;;
77451;SDS011;66537;52.370;4.832;2023-04-15T08:55:48;7.82;;;3.47;;
77451;SDS011;66537;52.370;4.832;2023-04-15T08:58:15;6.55;;;3.30;;
77451;SDS011;66537;52.370;4.832;2023-04-15T09:00:43;7.00;;;3.30;;
77451;SDS011;66537;52.370;4.832;2023-04-15T09:03:08;7.40;;;3.38;;
77451;SDS011;66537;52.370;4.832;2023-04-15T09:05:37;8.60;;;3.72;;
77451;SDS011;66537;52.370;4.832;2023-04-15T09:08:02;7.70;;;3.28;;
77451;SDS011;66537;52.370;4.832;2023-04-15T09:10:29;8.88;;;3.13;;
77451;SDS011;66537;52.370;4.832;2023-04-15T09:12:55;8.32;;;3.35;;
77451;SDS011;66537;52.370;4.832;2023-04-15T09:15:21;8.25;;;3.22;;
77451;SDS011;66537;52.370;4.832;2023-04-15T09:17:49;8.18;;;4.00;;
77451;SDS011;66537;52.370;4.832;2023-04-15T09:20:15;7.90;;;3.42;;
77451;SDS011;66537;52.370;4.832;2023-04-15T09:22:43;7.53;;;3.17;;
77451;SDS011;66537;52.370;4.832;2023-04-15T09:27:51;9.93;;;3.80;;
77451;SDS011;66537;52.370;4.832;2023-04-15T09:30:17;11.00;;;3.42;;
77451;SDS011;66537;52.370;4.832;2023-04-15T09:32:50;7.95;;;3.60;;
77451;SDS011;66537;52.370;4.832;2023-04-15T09:35:18;9.85;;;2.90;;
77451;SDS011;66537;52.370;4.832;2023-04-15T09:37:44;7.38;;;2.70;;
77451;SDS011;66537;52.370;4.832;2023-04-15T09:40:10;7.75;;;3.08;;
77451;SDS011;66537;52.370;4.832;2023-04-15T09:42:36;9.57;;;3.33;;
77451;SDS011;66537;52.370;4.832;2023-04-15T09:45:11;7.07;;;3.20;;
77451;SDS011;66537;52.370;4.832;2023-04-15T09:47:36;30.92;;;17.10;;
77451;SDS011;66537;52.370;4.832;2023-04-15T09:50:02;9.20;;;3.90;;
77451;SDS011;66537;52.370;4.832;2023-04-15T09:52:28;9.25;;;3.20;;
77451;SDS011;66537;52.370;4.832;2023-04-15T09:54:54;6.95;;;2.85;;
77451;SDS011;66537;52.370;4.832;2023-04-15T09:57:21;8.57;;;2.60;;
77451;SDS011;66537;52.370;4.832;2023-04-15T09:59:47;5.68;;;2.10;;
77451;SDS011;66537;52.370;4.832;2023-04-15T10:02:13;8.40;;;2.42;;
77451;SDS011;66537;52.370;4.832;2023-04-15T10:04:40;6.88;;;2.40;;
77451;SDS011;66537;52.370;4.832;2023-04-15T10:07:06;7.22;;;3.03;;
77451;SDS011;66537;52.370;4.832;2023-04-15T10:09:34;7.47;;;2.63;;
77451;SDS011;66537;52.370;4.832;2023-04-15T10:12:00;7.53;;;2.85;;
77451;SDS011;66537;52.370;4.832;2023-04-15T10:14:28;8.18;;;3.05;;
77451;SDS011;66537;52.370;4.832;2023-04-15T10:16:58;6.47;;;3.15;;
77451;SDS011;66537;52.370;4.832;2023-04-15T10:19:26;8.30;;;3.00;;
77451;SDS011;66537;52.370;4.832;2023-04-15T10:21:52;7.63;;;3.15;;
77451;SDS011;66537;52.370;4.832;2023-04-15T10:24:18;7.15;;;3.05;;
77451;SDS011;66537;52.370;4.832;2023-04-15T10:26:44;9.55;;;4.00;;
77451;SDS011;66537;52.370;4.832;2023-04-15T10:29:10;10.48;;;4.20;;
77451;SDS011;66537;52.370;4.832;2023-04-15T10:31:36;9.88;;;3.78;;
77451;SDS011;66537;52.370;4.832;2023-04-15T10:34:03;8.98;;;3.75;;
77451;SDS011;66537;52.370;4.832;2023-04-15T10:36:31;8.77;;;3.75;;
77451;SDS011;66537;52.370;4.832;2023-04-15T10:38:57;9.05;;;3.58;;
77451;SDS011;66537;52.370;4.832;2023-04-15T10:41:23;7.95;;;3.40;;
77451;SDS011;66537;52.370;4.832;2023-04-15T10:43:54;8.23;;;3.28;;
77451;SDS011;66537;52.370;4.832;2023-04-15T10:46:34;8.50;;;3.63;;
77451;SDS011;66537;52.370;4.832;2023-04-15T10:49:12;11.00;;;3.17;;
77451;SDS011;66537;52.370;4.832;2023-04-15T10:51:42;7.75;;;2.75;;
77451;SDS011;66537;52.370;4.832;2023-04-15T10:54:12;9.13;;;3.33;;
77451;SDS011;66537;52.370;4.832;2023-04-15T10:59:32;8.93;;;3.20;;
77451;SDS011;66537;52.370;4.832;2023-04-15T11:02:02;8.88;;;3.05;;
77451;SDS011;66537;52.370;4.832;2023-04-15T11:04:50;8.38;;;2.80;;
77451;SDS011;66537;52.370;4.832;2023-04-15T11:07:38;6.95;;;2.13;;
77451;SDS011;66537;52.370;4.832;2023-04-15T11:12:50;5.88;;;1.88;;
77451;SDS011;66537;52.370;4.832;2023-04-15T11:15:35;7.00;;;1.70;;
77451;SDS011;66537;52.370;4.832;2023-04-15T11:20:34;4.53;;;1.58;;
77451;SDS011;66537;52.370;4.832;2023-04-15T11:23:01;6.40;;;1.88;;
77451;SDS011;66537;52.370;4.832;2023-04-15T11:25:27;4.43;;;1.80;;
77451;SDS011;66537;52.370;4.832;2023-04-15T11:27:54;8.57;;;1.70;;
77451;SDS011;66537;52.370;4.832;2023-04-15T11:32:47;6.22;;;2.08;;
77451;SDS011;66537;52.370;4.832;2023-04-15T11:35:13;5.30;;;2.10;;
77451;SDS011;66537;52.370;4.832;2023-04-15T11:37:40;5.30;;;2.05;;
77451;SDS011;66537;52.370;4.832;2023-04-15T11:40:06;4.30;;;2.17;;
77451;SDS011;66537;52.370;4.832;2023-04-15T11:42:33;5.65;;;2.03;;
77451;SDS011;66537;52.370;4.832;2023-04-15T11:45:07;5.72;;;2.03;;
77451;SDS011;66537;52.370;4.832;2023-04-15T11:47:37;5.03;;;1.70;;
77451;SDS011;66537;52.370;4.832;2023-04-15T11:50:16;7.65;;;2.25;;
77451;SDS011;66537;52.370;4.832;2023-04-15T11:52:51;5.35;;;1.80;;
77451;SDS011;66537;52.370;4.832;2023-04-15T11:55:20;7.72;;;1.98;;
77451;SDS011;66537;52.370;4.832;2023-04-15T11:57:48;5.55;;;1.95;;
77451;SDS011;66537;52.370;4.832;2023-04-15T12:00:15;5.90;;;1.90;;
77451;SDS011;66537;52.370;4.832;2023-04-15T12:02:41;9.30;;;2.58;;
77451;SDS011;66537;52.370;4.832;2023-04-15T12:05:07;6.88;;;1.85;;
77451;SDS011;66537;52.370;4.832;2023-04-15T12:07:56;6.10;;;1.40;;
77451;SDS011;66537;52.370;4.832;2023-04-15T12:10:25;5.95;;;1.52;;
77451;SDS011;66537;52.370;4.832;2023-04-15T12:12:51;6.03;;;1.55;;
77451;SDS011;66537;52.370;4.832;2023-04-15T12:15:17;5.68;;;1.50;;
77451;SDS011;66537;52.370;4.832;2023-04-15T12:17:46;4.78;;;1.58;;
77451;SDS011;66537;52.370;4.832;2023-04-15T12:20:11;7.13;;;1.73;;
77451;SDS011;66537;52.370;4.832;2023-04-15T12:22:36;7.43;;;2.23;;
77451;SDS011;66537;52.370;4.832;2023-04-15T12:25:02;6.07;;;1.73;;
77451;SDS011;66537;52.370;4.832;2023-04-15T12:27:28;6.15;;;1.52;;
77451;SDS011;66537;52.370;4.832;2023-04-15T12:30:05;5.88;;;1.73;;
77451;SDS011;66537;52.370;4.832;2023-04-15T12:32:34;5.55;;;1.90;;
77451;SDS011;66537;52.370;4.832;2023-04-15T12:35:00;6.05;;;1.80;;
77451;SDS011;66537;52.370;4.832;2023-04-15T12:37:25;4.75;;;1.55;;
77451;SDS011;66537;52.370;4.832;2023-04-15T12:39:51;5.70;;;1.50;;
77451;SDS011;66537;52.370;4.832;2023-04-15T12:42:17;4.65;;;1.30;;
77451;SDS011;66537;52.370;4.832;2023-04-15T12:44:43;7.07;;;1.30;;
77451;SDS011;66537;52.370;4.832;2023-04-15T12:47:09;4.90;;;1.30;;
77451;SDS011;66537;52.370;4.832;2023-04-15T12:49:35;4.53;;;1.20;;
77451;SDS011;66537;52.370;4.832;2023-04-15T12:52:01;5.82;;;1.60;;
77451;SDS011;66537;52.370;4.832;2023-04-15T12:54:28;6.72;;;1.75;;
77451;SDS011;66537;52.370;4.832;2023-04-15T12:56:54;9.20;;;1.73;;
77451;SDS011;66537;52.370;4.832;2023-04-15T12:59:20;6.25;;;1.83;;
77451;SDS011;66537;52.370;4.832;2023-04-15T13:01:48;8.18;;;2.30;;
77451;SDS011;66537;52.370;4.832;2023-04-15T13:04:15;6.15;;;1.73;;
77451;SDS011;66537;52.370;4.832;2023-04-15T13:06:41;8.25;;;2.15;;
77451;SDS011;66537;52.370;4.832;2023-04-15T13:09:07;7.90;;;2.08;;
77451;SDS011;66537;52.370;4.832;2023-04-15T13:11:32;5.77;;;1.30;;
77451;SDS011;66537;52.370;4.832;2023-04-15T13:14:01;7.38;;;1.70;;
77451;SDS011;66537;52.370;4.832;2023-04-15T13:16:31;5.85;;;1.10;;
77451;SDS011;66537;52.370;4.832;2023-04-15T13:18:58;8.27;;;1.30;;
77451;SDS011;66537;52.370;4.832;2023-04-15T13:21:24;6.80;;;1.60;;
77451;SDS011;66537;52.370;4.832;2023-04-15T13:23:49;6.60;;;1.00;;
77451;SDS011;66537;52.370;4.832;2023-04-15T13:26:16;5.82;;;1.17;;
77451;SDS011;66537;52.370;4.832;2023-04-15T13:28:42;5.90;;;1.50;;
77451;SDS011;66537;52.370;4.832;2023-04-15T13:31:07;5.88;;;1.20;;
77451;SDS011;66537;52.370;4.832;2023-04-15T13:33:32;5.40;;;1.48;;
77451;SDS011;66537;52.370;4.832;2023-04-15T13:35:58;5.37;;;1.40;;
77451;SDS011;66537;52.370;4.832;2023-04-15T13:38:23;5.93;;;1.38;;
77451;SDS011;66537;52.370;4.832;2023-04-15T13:40:49;6.78;;;1.20;;
77451;SDS011;66537;52.370;4.832;2023-04-15T13:43:15;6.20;;;0.93;;
77451;SDS011;66537;52.370;4.832;2023-04-15T13:45:41;4.15;;;0.80;;
77451;SDS011;66537;52.370;4.832;2023-04-15T13:48:07;4.07;;;0.80;;
77451;SDS011;66537;52.370;4.832;2023-04-15T13:50:32;5.22;;;1.25;;
77451;SDS011;66537;52.370;4.832;2023-04-15T13:52:57;7.33;;;1.20;;
77451;SDS011;66537;52.370;4.832;2023-04-15T13:55:23;4.72;;;0.93;;
77451;SDS011;66537;52.370;4.832;2023-04-15T13:57:48;5.88;;;0.90;;
77451;SDS011;66537;52.370;4.832;2023-04-15T14:00:14;4.22;;;1.02;;
77451;SDS011;66537;52.370;4.832;2023-04-15T14:02:40;5.07;;;1.20;;
77451;SDS011;66537;52.370;4.832;2023-04-15T14:05:06;5.70;;;0.95;;
77451;SDS011;66537;52.370;4.832;2023-04-15T14:07:32;5.55;;;1.13;;
77451;SDS011;66537;52.370;4.832;2023-04-15T14:09:57;8.30;;;1.58;;
77451;SDS011;66537;52.370;4.832;2023-04-15T14:12:23;5.47;;;1.38;;
77451;SDS011;66537;52.370;4.832;2023-04-15T14:14:49;5.88;;;0.77;;
77451;SDS011;66537;52.370;4.832;2023-04-15T14:17:14;7.37;;;1.20;;
77451;SDS011;66537;52.370;4.832;2023-04-15T14:19:39;3.97;;;1.30;;
77451;SDS011;66537;52.370;4.832;2023-04-15T14:22:05;7.67;;;1.03;;
77451;SDS011;66537;52.370;4.832;2023-04-15T14:24:30;6.60;;;1.13;;
77451;SDS011;66537;52.370;4.832;2023-04-15T14:26:55;4.83;;;0.80;;
77451;SDS011;66537;52.370;4.832;2023-04-15T14:29:22;8.38;;;1.00;;
77451;SDS011;66537;52.370;4.832;2023-04-15T14:31:47;17.98;;;1.80;;
77451;SDS011;66537;52.370;4.832;2023-04-15T14:34:14;8.23;;;1.08;;
77451;SDS011;66537;52.370;4.832;2023-04-15T14:36:39;8.55;;;1.23;;
77451;SDS011;66537;52.370;4.832;2023-04-15T14:39:05;6.38;;;1.45;;
77451;SDS011;66537;52.370;4.832;2023-04-15T14:41:31;7.03;;;1.00;;
77451;SDS011;66537;52.370;4.832;2023-04-15T14:43:57;8.20;;;1.38;;
77451;SDS011;66537;52.370;4.832;2023-04-15T14:46:22;6.65;;;1.58;;
77451;SDS011;66537;52.370;4.832;2023-04-15T14:48:49;5.15;;;1.48;;
77451;SDS011;66537;52.370;4.832;2023-04-15T14:51:14;6.38;;;1.30;;